createdAt,value
2019-04-18T00:00:01.089Z,13.00
2019-04-18T00:02:54.505Z,12.90
2019-04-18T00:05:29.361Z,12.90
2019-04-18T00:07:59.815Z,12.80
2019-04-18T00:10:30.229Z,12.80
2019-04-18T00:13:01.452Z,12.70
2019-04-18T00:15:38.937Z,12.60
2019-04-18T00:18:07.579Z,12.70
2019-04-18T00:20:36.161Z,12.70
2019-04-18T00:23:06.555Z,12.60
2019-04-18T00:25:38.111Z,12.60
2019-04-18T00:28:08.806Z,12.60
2019-04-18T00:30:39.196Z,12.60
2019-04-18T00:33:09.614Z,12.60
2019-04-18T00:35:41.661Z,12.60
2019-04-18T00:38:12.182Z,12.60
2019-04-18T00:40:43.743Z,12.60
2019-04-18T00:43:14.646Z,12.60
2019-04-18T00:45:45.007Z,12.50
2019-04-18T00:48:15.413Z,12.50
2019-04-18T00:50:45.822Z,12.40
2019-04-18T00:53:21.528Z,12.50
2019-04-18T00:55:48.294Z,12.40
2019-04-18T00:58:19.547Z,12.40
2019-04-18T01:00:50.055Z,12.30
2019-04-18T01:03:20.893Z,12.30
2019-04-18T01:05:52.565Z,12.30
2019-04-18T01:08:22.994Z,12.30
2019-04-18T01:10:53.962Z,12.30
2019-04-18T01:13:24.314Z,12.30
2019-04-18T01:15:56.355Z,12.20
2019-04-18T01:18:27.034Z,12.20
2019-04-18T01:20:58.690Z,12.20
2019-04-18T01:23:29.745Z,12.20
2019-04-18T01:26:00.431Z,12.20
2019-04-18T01:28:30.877Z,12.20
2019-04-18T01:31:01.306Z,12.10
2019-04-18T01:33:32.787Z,12.10
2019-04-18T01:36:03.890Z,12.00
2019-04-18T01:38:34.270Z,12.00
2019-04-18T01:41:04.990Z,11.90
2019-04-18T01:43:54.343Z,12.00
2019-04-18T01:46:28.895Z,12.00
2019-04-18T01:48:59.375Z,11.90
2019-04-18T01:51:29.854Z,11.90
2019-04-18T01:54:03.534Z,11.90
2019-04-18T01:56:32.358Z,11.90
2019-04-18T01:59:06.442Z,11.90
2019-04-18T02:01:34.966Z,11.90
2019-04-18T02:04:07.566Z,11.90
2019-04-18T02:06:38.122Z,11.80
2019-04-18T02:09:12.827Z,11.80
2019-04-18T02:11:43.348Z,11.70
2019-04-18T02:14:13.709Z,11.70
2019-04-18T02:16:44.645Z,11.70
2019-04-18T02:19:15.113Z,11.60
2019-04-18T02:21:45.501Z,11.70
2019-04-18T02:24:15.909Z,11.70
2019-04-18T02:26:49.397Z,11.70
2019-04-18T02:29:18.436Z,11.70
2019-04-18T02:31:48.806Z,11.70
2019-04-18T02:34:19.976Z,11.70
2019-04-18T02:36:50.454Z,11.70
2019-04-18T02:39:20.835Z,11.60
2019-04-18T02:41:51.227Z,11.50
2019-04-18T02:44:26.798Z,11.50
2019-04-18T02:46:53.658Z,11.50
2019-04-18T02:49:27.439Z,11.40
2019-04-18T02:51:56.290Z,11.40
2019-04-18T02:54:26.674Z,11.50
2019-04-18T02:57:02.854Z,11.40
2019-04-18T02:59:50.428Z,11.40
2019-04-18T03:02:42.519Z,11.40
2019-04-18T03:05:14.934Z,11.50
2019-04-18T03:07:45.338Z,11.50
2019-04-18T03:10:15.815Z,11.50
2019-04-18T03:12:46.201Z,11.40
2019-04-18T03:15:18.704Z,11.40
2019-04-18T03:17:48.786Z,11.30
2019-04-18T03:20:20.492Z,11.30
2019-04-18T03:22:51.031Z,11.30
2019-04-18T03:25:22.676Z,11.20
2019-04-18T03:27:53.488Z,11.30
2019-04-18T03:30:29.789Z,11.20
2019-04-18T03:32:56.071Z,11.20
2019-04-18T03:35:26.426Z,11.20
2019-04-18T03:37:56.845Z,11.20
2019-04-18T03:40:27.207Z,11.20
2019-04-18T03:42:57.589Z,11.10
2019-04-18T03:45:59.056Z,11.10
2019-04-18T03:48:29.455Z,11.00
2019-04-18T03:50:59.960Z,11.00
2019-04-18T03:53:32.776Z,11.00
2019-04-18T03:56:02.514Z,10.90
2019-04-18T03:58:32.938Z,10.90
2019-04-18T04:01:03.453Z,10.90
2019-04-18T04:03:34.037Z,10.80
2019-04-18T04:06:06.157Z,10.80
2019-04-18T04:08:36.506Z,10.70
2019-04-18T04:11:07.190Z,10.70
2019-04-18T04:13:37.575Z,10.70
2019-04-18T04:16:08.269Z,10.50
2019-04-18T04:18:47.934Z,10.50
2019-04-18T04:21:18.185Z,10.40
2019-04-18T04:23:48.744Z,10.40
2019-04-18T04:26:19.170Z,10.40
2019-04-18T04:28:49.554Z,10.30
2019-04-18T04:31:22.034Z,10.20
2019-04-18T04:33:52.010Z,10.30
2019-04-18T04:36:26.335Z,10.20
2019-04-18T04:38:54.446Z,10.20
2019-04-18T04:41:24.818Z,10.20
2019-04-18T04:43:55.770Z,10.10
2019-04-18T04:46:26.274Z,10.20
2019-04-18T04:48:58.557Z,10.20
2019-04-18T04:51:39.025Z,10.20
2019-04-18T04:54:27.452Z,10.20
2019-04-18T04:57:06.028Z,10.20
2019-04-18T04:59:46.042Z,10.20
2019-04-18T05:02:11.694Z,10.10
2019-04-18T05:04:42.078Z,10.10
2019-04-18T05:07:18.071Z,10.10
2019-04-18T05:09:45.164Z,9.90
2019-04-18T05:12:15.538Z,10.00
2019-04-18T05:14:45.930Z,10.00
2019-04-18T05:17:16.312Z,9.80
2019-04-18T05:19:46.697Z,9.80
2019-04-18T05:22:17.549Z,9.70
2019-04-18T05:24:48.057Z,9.70
2019-04-18T05:27:18.421Z,9.80
2019-04-18T05:29:51.290Z,9.90
2019-04-18T05:32:21.650Z,10.10
2019-04-18T05:34:52.066Z,10.20
2019-04-18T05:37:22.478Z,10.30
2019-04-18T05:39:52.881Z,10.30
2019-04-18T05:42:23.905Z,10.30
2019-04-18T05:44:54.343Z,10.40
2019-04-18T05:47:32.569Z,10.50
2019-04-18T05:50:12.814Z,10.60
2019-04-18T05:52:46.443Z,10.60
2019-04-18T05:55:21.580Z,10.70
2019-04-18T05:57:51.407Z,10.80
2019-04-18T06:00:41.897Z,10.90
2019-04-18T06:03:30.197Z,11.00
2019-04-18T06:06:19.554Z,11.00
2019-04-18T06:08:49.933Z,11.10
2019-04-18T06:11:27.315Z,11.20
2019-04-18T06:14:03.557Z,11.20
2019-04-18T06:16:39.362Z,11.30
2019-04-18T06:19:20.351Z,11.40
2019-04-18T06:22:06.297Z,11.50
2019-04-18T06:24:44.621Z,11.70
2019-04-18T06:27:37.066Z,11.90
2019-04-18T06:30:29.060Z,12.10
2019-04-18T06:33:07.501Z,12.30
2019-04-18T06:35:38.079Z,12.50
2019-04-18T06:38:08.465Z,12.70
2019-04-18T06:40:38.893Z,12.90
2019-04-18T06:43:09.362Z,13.20
2019-04-18T06:45:41.285Z,13.40
2019-04-18T06:48:12.110Z,13.60
2019-04-18T06:50:42.542Z,13.80
2019-04-18T06:53:18.200Z,14.10
2019-04-18T06:55:45.058Z,14.30
2019-04-18T06:58:15.718Z,14.50
2019-04-18T07:00:46.234Z,14.60
2019-04-18T07:03:17.441Z,14.80
2019-04-18T07:05:48.716Z,15.10
2019-04-18T07:08:26.033Z,15.20
2019-04-18T07:11:03.585Z,15.20
2019-04-18T07:13:44.313Z,15.40
2019-04-18T07:16:14.687Z,15.70
2019-04-18T07:18:45.151Z,15.70
2019-04-18T07:21:21.164Z,15.70
2019-04-18T07:23:52.249Z,15.80
2019-04-18T07:26:25.614Z,16.00
2019-04-18T07:28:58.779Z,16.20
2019-04-18T07:31:31.948Z,16.40
2019-04-18T07:34:00.245Z,16.50
2019-04-18T07:36:30.648Z,16.50
2019-04-18T07:39:01.905Z,16.70
2019-04-18T07:41:32.391Z,16.80
2019-04-18T07:44:02.784Z,16.80
2019-04-18T07:46:33.211Z,16.90
2019-04-18T07:49:03.587Z,17.00
2019-04-18T07:51:34.006Z,17.20
2019-04-18T07:54:04.383Z,17.30
2019-04-18T07:56:38.028Z,17.40
2019-04-18T07:59:10.502Z,17.60
2019-04-18T08:01:38.977Z,17.40
2019-04-18T08:04:15.610Z,17.60
2019-04-18T08:06:41.491Z,17.60
2019-04-18T08:09:12.485Z,17.90
2019-04-18T08:11:43.169Z,17.60
2019-04-18T08:14:13.557Z,17.60
2019-04-18T08:16:43.994Z,17.80
2019-04-18T08:19:14.381Z,18.10
2019-04-18T08:21:44.781Z,18.40
2019-04-18T08:24:15.430Z,18.50
2019-04-18T08:26:45.940Z,18.40
2019-04-18T08:29:26.447Z,18.40
2019-04-18T08:31:48.410Z,18.40
2019-04-18T08:34:20.027Z,18.60
2019-04-18T08:36:50.935Z,18.90
2019-04-18T08:39:39.329Z,19.00
2019-04-18T08:42:30.745Z,18.90
2019-04-18T08:45:06.125Z,19.10
2019-04-18T08:47:36.579Z,19.20
2019-04-18T08:50:13.031Z,19.30
2019-04-18T08:52:43.417Z,19.70
2019-04-18T08:55:32.838Z,19.90
2019-04-18T08:58:03.244Z,20.20
2019-04-18T09:00:33.703Z,20.30
2019-04-18T09:03:04.165Z,20.40
2019-04-18T09:05:35.573Z,20.90
2019-04-18T09:08:11.086Z,21.10
2019-04-18T09:10:39.583Z,21.10
2019-04-18T09:13:18.315Z,21.40
2019-04-18T09:15:46.321Z,21.70
2019-04-18T09:18:20.176Z,21.90
2019-04-18T09:20:46.856Z,21.90
2019-04-18T09:23:17.671Z,22.10
2019-04-18T09:25:48.371Z,22.60
2019-04-18T09:28:18.995Z,22.80
2019-04-18T09:30:49.383Z,22.60
2019-04-18T09:33:25.542Z,22.60
2019-04-18T09:35:53.024Z,21.80
2019-04-18T09:38:23.932Z,21.60
2019-04-18T09:40:55.087Z,21.30
2019-04-18T09:43:29.382Z,21.40
2019-04-18T09:45:59.770Z,21.60
2019-04-18T09:48:31.299Z,21.90
2019-04-18T09:51:01.922Z,22.00
2019-04-18T09:53:32.289Z,22.20
2019-04-18T09:56:02.671Z,22.10
2019-04-18T09:58:33.082Z,21.80
2019-04-18T10:01:03.586Z,22.20
2019-04-18T10:03:43.151Z,22.20
2019-04-18T10:06:13.915Z,22.50
2019-04-18T10:08:44.615Z,22.60
2019-04-18T10:11:17.881Z,22.60
2019-04-18T10:13:47.070Z,22.50
2019-04-18T10:16:18.450Z,22.30
2019-04-18T10:18:49.483Z,22.20
2019-04-18T10:21:29.308Z,22.00
2019-04-18T10:23:59.708Z,21.90
2019-04-18T10:26:49.022Z,21.60
2019-04-18T10:29:25.598Z,21.30
2019-04-18T10:31:55.978Z,21.20
2019-04-18T10:34:26.402Z,21.20
2019-04-18T10:36:56.978Z,21.10
2019-04-18T10:39:27.392Z,21.10
2019-04-18T10:41:57.847Z,21.10
2019-04-18T10:44:28.234Z,21.10
2019-04-18T10:46:58.642Z,21.00
2019-04-18T10:49:29.042Z,21.00
2019-04-18T10:51:59.426Z,21.00
2019-04-18T10:54:29.944Z,21.10
2019-04-18T10:57:00.305Z,21.10
2019-04-18T10:59:30.694Z,21.10
2019-04-18T11:02:01.091Z,21.00
2019-04-18T11:04:31.457Z,21.00
2019-04-18T11:07:01.886Z,21.10
2019-04-18T11:09:32.244Z,21.00
2019-04-18T11:12:02.672Z,21.10
2019-04-18T11:14:33.196Z,21.10
2019-04-18T11:17:03.685Z,21.00
2019-04-18T11:19:34.601Z,21.00
2019-04-18T11:22:04.997Z,21.10
2019-04-18T11:24:35.386Z,21.30
2019-04-18T11:27:05.792Z,21.30
2019-04-18T11:29:36.198Z,21.50
2019-04-18T11:32:06.576Z,21.50
2019-04-18T11:34:39.183Z,21.10
2019-04-18T11:37:09.090Z,21.10
2019-04-18T11:39:39.545Z,20.80
2019-04-18T11:42:10.288Z,20.90
2019-04-18T11:44:40.866Z,21.10
2019-04-18T11:47:11.259Z,21.20
2019-04-18T11:49:41.711Z,20.90
2019-04-18T11:52:12.119Z,21.00
2019-04-18T11:54:42.623Z,21.10
2019-04-18T11:57:13.058Z,21.10
2019-04-18T11:59:46.194Z,20.90
2019-04-18T12:02:19.609Z,21.10
2019-04-18T12:05:02.244Z,21.10
2019-04-18T12:07:34.686Z,20.90
2019-04-18T12:10:06.882Z,20.60
2019-04-18T12:12:37.301Z,20.60
2019-04-18T12:15:08.066Z,20.80
2019-04-18T12:17:38.418Z,20.70
2019-04-18T12:20:08.901Z,20.60
2019-04-18T12:22:39.259Z,20.80
2019-04-18T12:25:15.031Z,21.10
2019-04-18T12:27:41.809Z,21.10
2019-04-18T12:30:12.948Z,21.10
2019-04-18T12:32:43.308Z,21.10
2019-04-18T12:35:13.799Z,21.10
2019-04-18T12:37:44.165Z,21.20
2019-04-18T12:40:14.949Z,21.20
2019-04-18T12:42:45.405Z,21.20
2019-04-18T12:45:15.805Z,21.20
2019-04-18T12:47:46.264Z,21.20
2019-04-18T12:50:17.434Z,21.10
2019-04-18T12:52:48.090Z,21.10
2019-04-18T12:55:18.469Z,21.20
2019-04-18T12:57:48.859Z,21.30
2019-04-18T13:00:19.948Z,21.20
2019-04-18T13:02:50.437Z,21.30
2019-04-18T13:05:20.985Z,21.30
2019-04-18T13:07:58.162Z,21.30
2019-04-18T13:10:42.149Z,21.20
2019-04-18T13:13:19.401Z,21.30
2019-04-18T13:16:00.580Z,21.50
2019-04-18T13:18:31.253Z,21.60
2019-04-18T13:21:01.669Z,21.40
2019-04-18T13:23:32.017Z,21.10
2019-04-18T13:26:02.538Z,21.10
2019-04-18T13:28:32.990Z,21.10
2019-04-18T13:31:03.394Z,20.90
2019-04-18T13:33:33.754Z,20.90
2019-04-18T13:36:05.439Z,21.00
2019-04-18T13:38:35.869Z,21.10
2019-04-18T13:41:06.368Z,21.30
2019-04-18T13:43:37.130Z,21.40
2019-04-18T13:46:12.034Z,21.50
2019-04-18T13:48:39.582Z,21.60
2019-04-18T13:51:10.652Z,21.70
2019-04-18T13:53:55.342Z,21.60
2019-04-18T13:56:13.201Z,21.70
2019-04-18T13:58:43.568Z,21.60
2019-04-18T14:01:13.920Z,21.60
2019-04-18T14:03:44.299Z,21.70
2019-04-18T14:06:14.667Z,21.60
2019-04-18T14:08:45.053Z,21.50
2019-04-18T14:11:15.750Z,21.50
2019-04-18T14:13:46.261Z,21.30
2019-04-18T14:16:16.611Z,21.50
2019-04-18T14:18:47.006Z,21.60
2019-04-18T14:21:17.658Z,21.60
2019-04-18T14:23:51.022Z,21.50
2019-04-18T14:26:20.133Z,21.60
2019-04-18T14:28:50.532Z,21.70
2019-04-18T14:31:20.901Z,21.70
2019-04-18T14:33:51.293Z,21.80
2019-04-18T14:36:21.649Z,21.80
2019-04-18T14:38:52.033Z,21.90
2019-04-18T14:41:22.564Z,22.00
2019-04-18T14:43:52.942Z,22.10
2019-04-18T14:46:23.703Z,21.90
2019-04-18T14:48:54.082Z,21.90
2019-04-18T14:51:24.537Z,22.00
2019-04-18T14:53:54.984Z,22.10
2019-04-18T14:56:25.567Z,22.20
2019-04-18T14:58:55.949Z,22.10
2019-04-18T15:01:25.586Z,21.90
2019-04-18T15:03:55.978Z,21.90
2019-04-18T15:06:26.470Z,22.00
2019-04-18T15:08:58.005Z,21.80
2019-04-18T15:11:28.605Z,21.90
2019-04-18T15:13:59.100Z,21.90
2019-04-18T15:16:29.927Z,21.90
2019-04-18T15:19:00.313Z,21.80
2019-04-18T15:21:30.674Z,21.60
2019-04-18T15:24:02.067Z,21.50
2019-04-18T15:26:33.958Z,21.50
2019-04-18T15:29:12.314Z,21.60
2019-04-18T15:31:47.853Z,21.50
2019-04-18T15:34:16.295Z,21.60
2019-04-18T15:36:46.879Z,21.50
2019-04-18T15:39:17.403Z,21.50
2019-04-18T15:41:47.798Z,21.50
2019-04-18T15:44:18.330Z,21.50
2019-04-18T15:47:12.081Z,21.50
2019-04-18T15:49:42.620Z,21.50
2019-04-18T15:52:13.086Z,21.40
2019-04-18T15:54:43.483Z,21.40
2019-04-18T15:57:13.897Z,21.40
2019-04-18T15:59:44.521Z,21.50
2019-04-18T16:02:14.869Z,21.50
2019-04-18T16:04:45.731Z,21.40
2019-04-18T16:07:17.020Z,21.30
2019-04-18T16:09:47.698Z,21.30
2019-04-18T16:12:18.087Z,21.30
2019-04-18T16:15:08.799Z,21.20
2019-04-18T16:17:40.105Z,21.00
2019-04-18T16:20:11.259Z,20.90
2019-04-18T16:22:41.674Z,20.80
2019-04-18T16:25:12.054Z,20.80
2019-04-18T16:27:42.446Z,20.60
2019-04-18T16:30:13.518Z,20.60
2019-04-18T16:32:43.901Z,20.60
2019-04-18T16:35:20.133Z,20.70
2019-04-18T16:37:51.676Z,20.50
2019-04-18T16:40:23.050Z,20.40
2019-04-18T16:42:53.436Z,20.50
2019-04-18T16:45:24.009Z,20.50
2019-04-18T16:47:54.413Z,20.50
2019-04-18T16:50:25.243Z,20.40
2019-04-18T16:52:55.635Z,20.40
2019-04-18T16:55:26.029Z,20.40
2019-04-18T16:57:56.573Z,20.40
2019-04-18T17:00:34.705Z,20.50
2019-04-18T17:03:05.600Z,20.40
2019-04-18T17:05:36.042Z,20.30
2019-04-18T17:08:06.447Z,20.10
2019-04-18T17:10:37.150Z,20.10
2019-04-18T17:13:07.714Z,20.10
2019-04-18T17:15:38.304Z,20.10
2019-04-18T17:18:08.679Z,20.10
2019-04-18T17:20:39.108Z,20.00
2019-04-18T17:23:24.344Z,20.00
2019-04-18T17:25:55.130Z,19.90
2019-04-18T17:28:26.438Z,19.90
2019-04-18T17:30:59.536Z,19.90
2019-04-18T17:33:30.075Z,19.70
2019-04-18T17:36:16.784Z,19.60
2019-04-18T17:39:10.996Z,19.60
2019-04-18T17:41:13.585Z,19.50
2019-04-18T17:43:46.447Z,19.50
2019-04-18T17:46:18.706Z,19.50
2019-04-18T17:48:46.383Z,19.50
2019-04-18T17:51:26.190Z,19.40
2019-04-18T17:54:05.694Z,19.40
2019-04-18T17:56:29.304Z,19.40
2019-04-18T17:58:53.081Z,19.20
2019-04-18T18:01:24.204Z,19.20
2019-04-18T18:03:58.346Z,19.10
2019-04-18T18:06:36.009Z,19.10
2019-04-18T18:09:03.985Z,19.00
2019-04-18T18:11:31.263Z,19.00
2019-04-18T18:14:07.401Z,19.00
2019-04-18T18:16:35.433Z,19.00
2019-04-18T18:19:08.320Z,18.90
2019-04-18T18:21:44.843Z,18.80
2019-04-18T18:24:12.967Z,18.80
2019-04-18T18:26:48.978Z,18.80
2019-04-18T18:29:18.042Z,18.70
2019-04-18T18:31:51.431Z,18.70
2019-04-18T18:34:19.782Z,18.70
2019-04-18T18:37:01.758Z,18.60
2019-04-18T18:39:37.603Z,18.50
2019-04-18T18:42:06.006Z,18.30
2019-04-18T18:44:43.209Z,18.40
2019-04-18T18:47:09.459Z,18.20
2019-04-18T18:49:42.717Z,18.20
2019-04-18T18:52:13.189Z,18.20
2019-04-18T18:54:46.111Z,18.20
2019-04-18T18:57:18.611Z,18.30
2019-04-18T18:59:54.364Z,18.20
2019-04-18T19:02:22.823Z,18.10
2019-04-18T19:05:16.259Z,18.10
2019-04-18T19:07:30.189Z,18.10
2019-04-18T19:10:22.035Z,18.10
2019-04-18T19:12:41.248Z,18.00
2019-04-18T19:15:10.502Z,18.00
2019-04-18T19:17:34.058Z,17.90
2019-04-18T19:20:05.497Z,17.90
2019-04-18T19:22:37.252Z,17.90
2019-04-18T19:25:09.310Z,17.80
2019-04-18T19:27:46.130Z,17.80
2019-04-18T19:30:16.361Z,17.70
2019-04-18T19:32:51.263Z,17.60
2019-04-18T19:35:37.365Z,17.60
2019-04-18T19:38:10.947Z,17.50
2019-04-18T19:43:00.090Z,17.60
2019-04-18T19:45:26.074Z,17.60
2019-04-18T19:47:56.622Z,17.60
2019-04-18T19:50:27.623Z,17.50
2019-04-18T19:53:04.186Z,17.50
2019-04-18T19:55:32.425Z,17.40
2019-04-18T19:58:03.181Z,17.40
2019-04-18T20:00:34.743Z,17.40
2019-04-18T20:03:07.171Z,17.40
2019-04-18T20:06:01.941Z,17.40
2019-04-18T20:08:21.622Z,17.30
2019-04-18T20:10:58.512Z,17.30
2019-04-18T20:13:18.030Z,17.30
2019-04-18T20:15:46.468Z,17.30
2019-04-18T20:18:17.503Z,17.20
2019-04-18T20:20:48.270Z,17.20
2019-04-18T20:23:20.065Z,17.10
2019-04-18T20:25:51.594Z,17.20
2019-04-18T20:28:22.982Z,17.10
2019-04-18T20:30:55.725Z,17.10
2019-04-18T20:33:28.311Z,17.10
2019-04-18T20:36:05.653Z,17.10
2019-04-18T20:38:33.989Z,17.00
2019-04-18T20:41:25.599Z,17.00
2019-04-18T20:43:48.993Z,16.90
2019-04-18T20:49:01.425Z,16.80
2019-04-18T20:51:13.213Z,16.80
2019-04-18T20:54:05.814Z,16.80
2019-04-18T20:56:15.843Z,16.70
2019-04-18T20:58:46.413Z,16.70
2019-04-18T21:01:16.894Z,16.70
2019-04-18T21:03:48.615Z,16.60
2019-04-18T21:06:22.193Z,16.60
2019-04-18T21:09:07.373Z,16.60
2019-04-18T21:11:24.174Z,16.60
2019-04-18T21:13:54.757Z,16.50
2019-04-18T21:16:28.789Z,16.50
2019-04-18T21:18:57.223Z,16.50
2019-04-18T21:21:27.686Z,16.40
2019-04-18T21:24:00.908Z,16.40
2019-04-18T21:26:30.230Z,16.40
2019-04-18T21:29:05.160Z,16.30
2019-04-18T21:31:32.749Z,16.30
2019-04-18T21:34:08.378Z,16.30
2019-04-18T21:36:35.223Z,16.20
2019-04-18T21:39:08.733Z,16.20
2019-04-18T21:41:39.566Z,16.20
2019-04-18T21:44:12.272Z,16.20
2019-04-18T21:46:45.138Z,16.20
2019-04-18T21:49:14.250Z,16.30
2019-04-18T21:51:48.210Z,16.20
2019-04-18T21:54:17.868Z,16.20
2019-04-18T21:56:52.967Z,16.20
2019-04-18T21:59:34.465Z,16.20
2019-04-18T22:01:56.400Z,16.20
2019-04-18T22:04:34.294Z,16.10
2019-04-18T22:07:14.200Z,16.10
2019-04-18T22:09:34.112Z,16.00
2019-04-18T22:12:08.527Z,16.10
2019-04-18T22:14:37.184Z,16.10
2019-04-18T22:17:09.581Z,16.00
2019-04-18T22:19:40.143Z,16.00
2019-04-18T22:22:11.766Z,16.00
2019-04-18T22:24:42.297Z,16.00
2019-04-18T22:27:15.426Z,16.00
2019-04-18T22:29:45.607Z,15.90
2019-04-18T22:32:19.157Z,15.90
2019-04-18T22:34:49.994Z,15.80
2019-04-18T22:37:26.671Z,15.80
2019-04-18T22:39:55.038Z,15.80
2019-04-18T22:42:26.390Z,15.80
2019-04-18T22:45:01.004Z,15.80
2019-04-18T22:47:28.858Z,15.80
2019-04-18T22:50:00.528Z,15.80
2019-04-18T22:52:33.695Z,15.80
2019-04-18T22:55:07.024Z,15.80
2019-04-18T22:57:39.539Z,15.70
2019-04-18T23:00:07.727Z,15.70
2019-04-18T23:02:38.253Z,15.70
2019-04-18T23:05:08.869Z,15.60
2019-04-18T23:07:50.899Z,15.60
2019-04-18T23:10:13.540Z,15.60
2019-04-18T23:12:46.021Z,15.60
2019-04-18T23:15:19.380Z,15.60
2019-04-18T23:17:49.843Z,15.50
2019-04-18T23:20:24.293Z,15.50
2019-04-18T23:22:53.515Z,15.50
2019-04-18T23:25:27.690Z,15.40
2019-04-18T23:27:56.686Z,15.50
2019-04-18T23:30:29.536Z,15.40
2019-04-18T23:33:02.532Z,15.40
2019-04-18T23:35:31.559Z,15.30
2019-04-18T23:38:09.791Z,15.40
2019-04-18T23:40:37.983Z,15.40
2019-04-18T23:43:06.187Z,15.30
2019-04-18T23:45:40.010Z,15.30
2019-04-18T23:48:09.790Z,15.30
2019-04-18T23:50:40.286Z,15.20
2019-04-18T23:53:11.474Z,15.20
2019-04-18T23:55:46.722Z,15.20
2019-04-18T23:58:14.350Z,15.20
